Main page
METAR-TAF:

METAR-TAF

Airports :

Kangerlussuaq Airport

Kangerlussuaq, Greenland

latitude: 67-01N, longitude: 050-42W, elevation: 50 m

Current weather observation

The report was made 53 minutes ago, at 02:50 UTC
Wind 3 kt from variable directions
Temperature -22°C
Humidity 76%
Pressure 1015 hPa
Visibility 10 km or more

METAR: BGSF 250250Z AUTO VRB03KT 9999NDV BKN030/// M22/M25 Q1015

Time: 00:43 (03:43 UTC)

Forecast

The report was made 10 hours and 54 minutes ago, at 16:49 UTC
Forecast valid from 24 at 18 UTC to 24 at 24 UTC
Wind 8 kt from the East/Northeast
Visibility 10 km or more
Broken clouds at a height of 3000 ft
Temporary
from 24 at 18 UTC to 24 at 24 UTC
Scattered clouds at a height of 3000 ft

TAF: BGSF 241649Z 2418/2424 06008KT 9999 BKN030 TEMPO 2418/2424 SCT030

Weather observations and forecasts of more than 4000 airports (METAR and TAF reports).

The available stations are represented by yellow and red dots on the map.

Hover mouse over dot to see the name of the station.

Then click to see weather observations and forecasts.

To change the map : click on the green buttons with a black cross to zoom in, on the green button with a dash to zoom out, or on the green arrows for adjacent maps.


METAR-TAF: